Time;durP1;ratioP1;P1;durP2;ratioP2;P2;SDS_P1;SDS_P2;PMS_P1;PMS_P2;Temp;Humidity;BMP_temperature;BMP_pressure;BME280_temperature;BME280_humidity;BME280_pressure;Samples;Min_cycle;Max_cycle;Signal;HPM_P1;HPM_P2
2024/03/02 00:00:27;;;;;;;36.53;33.83;;;;;;;6.98;100.00;100836.25;5028407;28;20053;-71
2024/03/02 00:02:54;;;;;;;36.90;34.30;;;;;;;6.95;100.00;100831.31;5028119;28;20056;-71
2024/03/02 00:05:22;;;;;;;38.33;35.53;;;;;;;6.91;100.00;100836.13;5028669;28;20057;-71
2024/03/02 00:07:56;;;;;;;40.08;37.17;;;;;;;7.02;100.00;100846.28;5027002;28;20053;-71
2024/03/02 00:10:29;;;;;;;42.15;39.03;;;;;;;6.81;100.00;100856.69;5024222;28;20049;-70
2024/03/02 00:12:56;;;;;;;;;;;;;;;6.82;100.00;100851.22;5028436;28;20049;-70
2024/03/02 00:15:46;;;;;;;39.28;36.28;;;;;;;6.77;100.00;100847.47;5023990;28;19988;-71
2024/03/02 00:18:14;;;;;;;39.65;36.75;;;;;;;6.71;100.00;100853.47;5028890;28;20501;-70
2024/03/02 00:20:41;;;;;;;44.17;41.08;;;;;;;6.61;100.00;100854.53;5026037;28;20747;-70
2024/03/02 00:23:11;;;;;;;41.17;38.17;;;;;;;6.58;100.00;100854.06;5027260;28;20047;-71
2024/03/02 00:25:44;;;;;;;39.67;36.58;;;;;;;6.56;100.00;100848.94;5023036;28;20754;-71
2024/03/02 00:28:20;;;;;;;;;;;;;;;6.56;100.00;100854.22;5038846;28;20057;-71
2024/03/02 00:30:57;;;;;;;46.78;43.47;;;;;;;6.56;100.00;100842.84;5023535;28;20023;-71
2024/03/02 00:33:32;;;;;;;41.40;38.40;;;;;;;6.79;100.00;100843.66;5026025;28;20049;-71
2024/03/02 00:36:00;;;;;;;40.42;37.47;;;;;;;6.59;100.00;100842.50;5025827;28;20056;-69
2024/03/02 00:38:29;;;;;;;41.35;38.25;;;;;;;6.51;100.00;100843.41;5025703;28;20073;-70
2024/03/02 00:40:59;;;;;;;42.13;38.95;;;;;;;6.42;100.00;100849.72;5027616;28;20041;-70
2024/03/02 00:43:44;;;;;;;41.53;38.35;;;;;;;6.45;100.00;100833.53;5026290;28;20053;-70
2024/03/02 00:46:18;;;;;;;41.55;38.45;;;;;;;6.42;100.00;100826.78;5025944;28;20052;-70
2024/03/02 00:48:54;;;;;;;41.10;38.00;;;;;;;6.38;100.00;100830.78;5029499;28;20037;-71
2024/03/02 00:51:21;;;;;;;41.67;38.58;;;;;;;6.80;100.00;100826.00;5024979;28;20056;-70
2024/03/02 00:53:50;;;;;;;43.63;38.78;;;;;;;6.42;100.00;100820.69;5026155;28;20051;-70
2024/03/02 00:56:17;;;;;;;45.65;42.17;;;;;;;6.54;100.00;100826.38;5024775;28;20719;-70
2024/03/02 00:58:44;;;;;;;45.80;42.50;;;;;;;6.39;100.00;100831.59;5020700;28;20551;-70
2024/03/02 01:01:11;;;;;;;44.40;41.00;;;;;;;6.49;100.00;100821.63;5027455;28;20532;-70
2024/03/02 01:03:38;;;;;;;45.80;42.50;;;;;;;6.41;100.00;100813.75;5026989;28;20402;-70
2024/03/02 01:06:07;;;;;;;44.60;41.17;;;;;;;6.42;100.00;100818.06;5027121;28;20060;-70
2024/03/02 01:08:35;;;;;;;42.80;39.70;;;;;;;6.45;100.00;100816.91;5021055;28;20115;-70
2024/03/02 01:11:04;;;;;;;43.42;40.13;;;;;;;6.52;100.00;100808.06;5027127;28;20053;-70
2024/03/02 01:13:31;;;;;;;42.22;39.03;;;;;;;6.47;100.00;100801.69;5031012;28;20045;-71
2024/03/02 01:15:59;;;;;;;49.03;45.38;;;;;;;6.52;100.00;100807.25;5032038;28;20528;-70
2024/03/02 01:18:26;;;;;;;48.05;44.45;;;;;;;6.51;100.00;100805.63;5026856;28;20441;-71
2024/03/02 01:20:55;;;;;;;44.05;40.65;;;;;;;6.50;100.00;100810.06;5028502;28;20041;-71
2024/03/02 01:23:23;;;;;;;45.30;41.80;;;;;;;6.37;100.00;100797.47;5030168;28;20092;-70
2024/03/02 01:25:50;;;;;;;51.55;47.85;;;;;;;6.33;100.00;100801.47;5021058;28;20800;-71
2024/03/02 01:28:20;;;;;;;45.45;41.95;;;;;;;6.26;100.00;100797.06;5028253;28;20065;-71
2024/03/02 01:30:48;;;;;;;51.38;47.38;;;;;;;6.30;100.00;100801.00;5026038;28;20595;-70
2024/03/02 01:33:16;;;;;;;51.38;47.47;;;;;;;6.26;100.00;100797.88;5027642;28;20084;-70
2024/03/02 01:35:42;;;;;;;51.13;47.28;;;;;;;6.24;100.00;100797.25;5030285;28;20864;-70
2024/03/02 01:38:09;;;;;;;50.80;46.90;;;;;;;6.23;100.00;100789.50;5028874;28;20057;-71
2024/03/02 01:40:37;;;;;;;50.58;46.47;;;;;;;6.23;100.00;100790.31;5030336;28;20059;-71
2024/03/02 01:43:05;;;;;;;52.00;46.45;;;;;;;6.24;100.00;100791.97;5027105;28;20045;-71
2024/03/02 01:45:35;;;;;;;47.78;43.78;;;;;;;6.32;100.00;100789.25;5018070;28;20049;-71
2024/03/02 01:48:02;;;;;;;47.85;44.20;;;;;;;6.15;100.00;100787.75;5030486;28;20041;-71
2024/03/02 01:50:30;;;;;;;51.38;47.67;;;;;;;6.07;100.00;100779.88;5031016;28;20061;-70
2024/03/02 01:52:58;;;;;;;45.90;41.78;;;;;;;6.05;100.00;100798.53;5028199;28;20053;-71
2024/03/02 01:55:25;;;;;;;44.72;41.22;;;;;;;6.00;100.00;100787.66;5029512;28;20401;-69
2024/03/02 01:57:54;;;;;;;48.08;44.08;;;;;;;6.27;100.00;100783.72;5028120;28;20041;-70
2024/03/02 02:00:21;;;;;;;45.17;41.75;;;;;;;6.00;100.00;100786.84;5029707;28;20572;-70
2024/03/02 02:02:50;;;;;;;47.53;43.90;;;;;;;6.06;100.00;100778.25;5028898;28;20531;-70
2024/03/02 02:05:18;;;;;;;45.90;42.40;;;;;;;6.13;100.00;100776.53;5027405;28;20053;-71
2024/03/02 02:07:47;;;;;;;52.45;45.22;;;;;;;5.93;100.00;100786.72;5030300;28;20536;-70
2024/03/02 02:10:14;;;;;;;54.28;50.35;;;;;;;5.87;100.00;100779.47;5030520;28;20058;-71
2024/03/02 02:12:42;;;;;;;52.03;48.00;;;;;;;6.09;100.00;100778.72;5029065;28;20046;-71
2024/03/02 02:15:28;;;;;;;46.70;43.17;;;;;;;6.11;100.00;100773.25;5029868;28;20055;-70
2024/03/02 02:17:57;;;;;;;44.53;41.03;;;;;;;5.91;100.00;100771.03;5023209;28;20045;-71
2024/03/02 02:20:24;;;;;;;47.78;44.08;;;;;;;5.94;100.00;100772.56;5029442;28;20065;-69
2024/03/02 02:23:00;;;;;;;44.75;41.33;;;;;;;6.21;100.00;100778.31;5030265;28;20041;-71
2024/03/02 02:25:27;;;;;;;48.05;43.75;;;;;;;6.11;100.00;100778.53;5027839;28;20045;-71
2024/03/02 02:27:54;;;;;;;49.20;45.15;;;;;;;6.05;100.00;100781.84;5025202;28;20057;-71
2024/03/02 02:30:22;;;;;;;48.75;45.15;;;;;;;6.08;100.00;100773.59;5027267;28;20049;-69
2024/03/02 02:32:49;;;;;;;45.25;41.78;;;;;;;6.28;100.00;100776.59;5027606;28;20057;-71
2024/03/02 02:35:16;;;;;;;46.28;42.58;;;;;;;6.02;100.00;100774.31;5030188;28;20049;-71
2024/03/02 02:37:44;;;;;;;57.45;53.35;;;;;;;6.02;100.00;100771.66;5025374;28;20432;-71
2024/03/02 02:40:13;;;;;;;53.85;48.90;;;;;;;6.01;100.00;100784.03;5026614;28;20179;-71
2024/03/02 02:42:40;;;;;;;48.35;44.65;;;;;;;6.03;100.00;100781.22;5029199;28;20050;-71
2024/03/02 02:45:08;;;;;;;53.35;49.15;;;;;;;6.20;100.00;100772.19;5029486;28;20136;-71
2024/03/02 02:47:35;;;;;;;58.85;54.72;;;;;;;6.23;100.00;100768.38;5026190;28;20054;-71
2024/03/02 02:50:04;;;;;;;49.13;45.42;;;;;;;6.26;100.00;100771.50;5026291;28;20058;-71
2024/03/02 02:52:35;;;;;;;47.40;43.70;;;;;;;6.26;100.00;100771.50;5029284;28;20060;-71
2024/03/02 02:55:03;;;;;;;46.95;43.30;;;;;;;6.29;100.00;100768.50;5027938;28;20056;-71
2024/03/02 02:57:35;;;;;;;49.30;45.30;;;;;;;6.75;100.00;100776.38;5025553;28;20064;-71
2024/03/02 03:00:05;;;;;;;46.47;42.90;;;;;;;6.36;100.00;100781.84;5027223;28;20424;-71
2024/03/02 03:02:32;;;;;;;54.30;50.50;;;;;;;6.22;100.00;100786.03;5029203;28;20060;-71
2024/03/02 03:04:59;;;;;;;50.03;46.28;;;;;;;6.23;100.00;100787.66;5027833;28;20057;-71
2024/03/02 03:07:26;;;;;;;49.85;46.05;;;;;;;6.31;100.00;100784.97;5027113;28;20064;-71
2024/03/02 03:09:53;;;;;;;54.00;49.90;;;;;;;6.33;100.00;100783.00;5028904;28;20054;-71
2024/03/02 03:12:20;;;;;;;56.03;52.03;;;;;;;6.30;100.00;100782.53;5026041;28;20048;-71
2024/03/02 03:14:48;;;;;;;49.60;45.67;;;;;;;6.49;100.00;100779.41;5027259;28;20049;-71
2024/03/02 03:17:15;;;;;;;47.40;43.40;;;;;;;6.36;100.00;100782.66;5024072;28;20046;-70
2024/03/02 03:19:42;;;;;;;48.58;44.78;;;;;;;6.31;100.00;100784.97;5022499;28;20049;-70
2024/03/02 03:22:09;;;;;;;54.17;49.97;;;;;;;6.51;100.00;100782.69;5029057;28;20056;-71
2024/03/02 03:24:36;;;;;;;52.58;48.72;;;;;;;6.35;100.00;100782.81;5026951;28;20153;-71
2024/03/02 03:27:03;;;;;;;49.05;45.28;;;;;;;6.79;100.00;100782.94;5024730;28;20049;-71
2024/03/02 03:29:30;;;;;;;45.40;42.00;;;;;;;6.61;100.00;100779.81;5026660;28;20076;-71
2024/03/02 03:31:58;;;;;;;43.78;40.47;;;;;;;6.34;100.00;100789.09;5026884;28;20054;-71
2024/03/02 03:34:25;;;;;;;46.50;42.95;;;;;;;6.27;100.00;100777.63;5025292;28;20508;-71
2024/03/02 03:36:52;;;;;;;52.15;48.15;;;;;;;6.26;100.00;100784.69;5028439;28;20056;-71
2024/03/02 03:39:19;;;;;;;51.88;47.97;;;;;;;6.35;100.00;100782.81;5024882;28;20737;-71
2024/03/02 03:41:46;;;;;;;51.28;47.47;;;;;;;6.23;100.00;100776.31;5025131;28;20064;-71
2024/03/02 03:44:12;;;;;;;52.53;48.53;;;;;;;6.23;100.00;100784.22;5026243;28;20052;-71
2024/03/02 03:46:39;;;;;;;51.97;47.88;;;;;;;6.21;100.00;100788.88;5027160;28;20062;-71
2024/03/02 03:49:08;;;;;;;47.40;43.78;;;;;;;6.23;100.00;100789.50;5022809;28;20049;-71
2024/03/02 03:51:35;;;;;;;48.10;44.30;;;;;;;6.20;100.00;100795.94;5027284;28;20072;-71
2024/03/02 03:54:02;;;;;;;54.85;50.78;;;;;;;6.27;100.00;100798.72;5027402;28;20049;-71
2024/03/02 03:56:29;;;;;;;51.38;47.38;;;;;;;6.23;100.00;100794.78;5027844;28;20049;-71
2024/03/02 03:58:55;;;;;;;46.63;42.63;;;;;;;6.33;100.00;100803.28;5027703;28;20060;-71
2024/03/02 04:01:24;;;;;;;47.78;44.08;;;;;;;6.27;100.00;100796.91;5026914;28;20049;-71
2024/03/02 04:03:51;;;;;;;47.83;44.03;;;;;;;6.23;100.00;100800.03;5028217;28;20049;-71
2024/03/02 04:06:19;;;;;;;54.00;49.80;;;;;;;6.40;100.00;100805.03;5026507;28;20429;-71
2024/03/02 04:08:46;;;;;;;53.58;48.72;;;;;;;6.19;100.00;100800.41;5025868;28;20080;-71
2024/03/02 04:11:13;;;;;;;47.53;43.72;;;;;;;6.33;100.00;100796.19;5022886;28;20124;-71
2024/03/02 04:13:40;;;;;;;47.40;43.60;;;;;;;6.18;100.00;100800.59;5028102;28;20055;-71
2024/03/02 04:16:07;;;;;;;55.58;51.28;;;;;;;6.17;100.00;100796.28;5027672;28;20786;-71
2024/03/02 04:18:34;;;;;;;53.08;48.92;;;;;;;6.21;100.00;100796.78;5030723;28;20050;-71
2024/03/02 04:21:01;;;;;;;57.88;53.67;;;;;;;6.18;100.00;100797.94;5028581;28;20575;-71
2024/03/02 04:23:30;;;;;;;54.22;49.88;;;;;;;6.18;100.00;100801.41;5027854;28;20520;-71
2024/03/02 04:25:56;;;;;;;48.45;44.65;;;;;;;6.09;100.00;100806.91;5026780;28;20438;-71
2024/03/02 04:28:23;;;;;;;49.42;45.63;;;;;;;6.05;100.00;100810.88;5023487;28;20057;-71
2024/03/02 04:30:50;;;;;;;50.80;46.75;;;;;;;6.06;100.00;100815.16;5026498;28;20046;-71
2024/03/02 04:33:18;;;;;;;55.72;51.53;;;;;;;6.07;100.00;100807.06;5028087;28;20072;-70
2024/03/02 04:35:46;;;;;;;55.40;51.20;;;;;;;6.19;100.00;100805.66;5020273;28;20057;-71
2024/03/02 04:38:13;;;;;;;50.47;46.47;;;;;;;6.21;100.00;100820.53;5027981;28;20128;-71
2024/03/02 04:40:41;;;;;;;51.05;47.00;;;;;;;6.26;100.00;100811.06;5028218;28;20050;-71
2024/03/02 04:43:09;;;;;;;55.80;51.50;;;;;;;6.26;100.00;100803.16;5027627;28;20065;-71
2024/03/02 04:45:39;;;;;;;60.88;56.40;;;;;;;6.35;100.00;100807.38;5030643;28;20041;-71
2024/03/02 04:48:06;;;;;;;62.38;57.88;;;;;;;6.47;100.00;100799.88;5027409;28;20504;-71
2024/03/02 04:50:33;;;;;;;51.53;47.53;;;;;;;6.54;100.00;100795.53;5031580;28;20057;-71
2024/03/02 04:53:00;;;;;;;49.65;45.30;;;;;;;6.59;100.00;100793.16;5029770;28;20052;-71
2024/03/02 04:55:58;;;;;;;45.13;41.72;;;;;;;6.39;100.00;100803.41;5031023;28;20053;-71
2024/03/02 04:58:24;;;;;;;51.35;47.55;;;;;;;6.36;100.00;100822.22;5029407;28;20081;-71
2024/03/02 05:00:51;;;;;;;50.47;46.38;;;;;;;6.34;100.00;100818.94;5025977;28;20416;-71
2024/03/02 05:03:18;;;;;;;48.63;44.78;;;;;;;6.57;100.00;100803.09;5030852;28;20052;-71
2024/03/02 05:05:45;;;;;;;49.15;45.25;;;;;;;6.76;100.00;100804.41;5031061;28;20045;-71
2024/03/02 05:08:12;;;;;;;45.80;42.30;;;;;;;7.08;100.00;100808.59;5028635;28;20053;-71
2024/03/02 05:10:39;;;;;;;43.22;39.80;;;;;;;6.74;100.00;100814.31;5029749;28;20064;-71
2024/03/02 05:13:05;;;;;;;54.13;50.22;;;;;;;6.62;100.00;100813.91;5029501;28;20049;-71
2024/03/02 05:15:34;;;;;;;48.95;45.08;;;;;;;6.78;100.00;100806.91;5031433;28;20061;-71
2024/03/02 05:18:02;;;;;;;43.15;39.95;;;;;;;6.74;100.00;100816.97;5030295;28;20064;-71
2024/03/02 05:20:29;;;;;;;48.10;44.30;;;;;;;7.17;100.00;100819.03;5029214;28;20053;-71
2024/03/02 05:22:56;;;;;;;44.25;40.75;;;;;;;7.00;100.00;100815.75;5030572;28;20049;-70
2024/03/02 05:25:23;;;;;;;45.30;41.88;;;;;;;7.13;100.00;100823.88;5029828;28;20478;-71
2024/03/02 05:27:50;;;;;;;42.97;39.67;;;;;;;6.77;100.00;100831.63;5026613;28;20731;-71
2024/03/02 05:30:17;;;;;;;52.72;48.28;;;;;;;6.91;100.00;100827.41;5030500;28;20060;-71
2024/03/02 05:32:46;;;;;;;47.25;43.65;;;;;;;7.14;100.00;100822.03;5029705;28;20057;-71
2024/03/02 05:35:13;;;;;;;45.95;42.55;;;;;;;7.11;100.00;100834.63;5030168;28;20045;-71
2024/03/02 05:37:40;;;;;;;45.17;41.55;;;;;;;6.99;100.00;100820.22;5028238;28;20061;-71
2024/03/02 05:40:08;;;;;;;54.17;50.38;;;;;;;7.04;100.00;100825.78;5028033;28;20144;-71
2024/03/02 05:42:35;;;;;;;48.63;45.03;;;;;;;7.02;100.00;100832.22;5030640;28;20413;-71
2024/03/02 05:45:02;;;;;;;50.03;45.88;;;;;;;7.08;100.00;100837.63;5030064;28;20045;-71
2024/03/02 05:47:29;;;;;;;50.25;46.55;;;;;;;7.08;100.00;100836.78;5029564;28;20532;-70
2024/03/02 05:49:57;;;;;;;52.58;48.58;;;;;;;7.24;100.00;100839.28;5028826;28;20136;-71
2024/03/02 05:52:24;;;;;;;47.40;43.60;;;;;;;7.33;100.00;100822.34;5030592;28;20053;-71
2024/03/02 05:54:51;;;;;;;43.75;40.45;;;;;;;7.41;100.00;100836.47;5028776;28;20416;-71
2024/03/02 05:57:31;;;;;;;57.40;53.13;;;;;;;7.52;100.00;100836.81;5027911;28;20064;-71
2024/03/02 05:59:59;;;;;;;51.10;47.40;;;;;;;7.57;100.00;100818.59;5030008;28;20060;-71
2024/03/02 06:02:26;;;;;;;50.58;46.88;;;;;;;7.56;100.00;100824.91;5029434;28;20057;-71
2024/03/02 06:04:57;;;;;;;45.35;41.85;;;;;;;7.54;100.00;100841.94;5029237;28;20492;-71
2024/03/02 06:07:25;;;;;;;50.33;46.63;;;;;;;7.63;100.00;100837.38;5026490;28;20049;-71
2024/03/02 06:09:52;;;;;;;50.40;46.60;;;;;;;7.89;100.00;100832.41;5027209;28;20054;-71
2024/03/02 06:12:19;;;;;;;47.30;43.88;;;;;;;7.90;100.00;100839.34;5027592;28;20073;-71
2024/03/02 06:14:46;;;;;;;42.33;39.03;;;;;;;7.53;100.00;100821.78;5027912;28;20042;-71
2024/03/02 06:17:13;;;;;;;42.80;39.20;;;;;;;7.54;100.00;100826.09;5029485;28;20045;-71
2024/03/02 06:19:40;;;;;;;42.80;39.50;;;;;;;7.40;100.00;100838.28;5029928;28;20085;-71
2024/03/02 06:22:10;;;;;;;43.95;40.47;;;;;;;7.56;100.00;100832.84;5030289;28;20052;-69
2024/03/02 06:24:37;;;;;;;42.22;39.03;;;;;;;7.78;100.00;100823.13;5028857;28;20045;-70
2024/03/02 06:27:04;;;;;;;44.13;40.72;;;;;;;7.97;100.00;100829.66;5027139;28;20049;-71
2024/03/02 06:29:33;;;;;;;45.35;41.97;;;;;;;7.89;100.00;100816.53;5022999;28;20111;-71
2024/03/02 06:32:00;;;;;;;42.33;39.13;;;;;;;8.15;100.00;100818.66;5029461;28;20135;-71
2024/03/02 06:34:28;;;;;;;38.22;35.17;;;;;;;7.75;100.00;100822.69;5027748;28;20049;-71
2024/03/02 06:36:54;;;;;;;40.15;37.15;;;;;;;7.54;100.00;100826.91;5027606;28;20058;-71
2024/03/02 06:39:23;;;;;;;41.00;37.90;;;;;;;7.80;100.00;100812.38;5025644;28;20112;-71
2024/03/02 06:41:49;;;;;;;42.38;39.08;;;;;;;8.19;100.00;100819.13;5023864;28;20058;-71
2024/03/02 06:44:16;;;;;;;41.38;38.28;;;;;;;7.54;100.00;100836.66;5024285;28;20611;-71
2024/03/02 06:46:43;;;;;;;42.05;38.90;;;;;;;7.62;100.00;100838.38;5026830;28;20045;-71
2024/03/02 06:49:10;;;;;;;43.92;40.53;;;;;;;7.77;100.00;100841.81;5027199;28;20060;-71
2024/03/02 06:51:37;;;;;;;41.50;38.28;;;;;;;7.82;100.00;100843.94;5029203;28;20056;-71
2024/03/02 06:54:04;;;;;;;42.03;38.85;;;;;;;7.82;100.00;100860.59;5028635;28;20045;-73
2024/03/02 06:56:40;;;;;;;39.55;36.55;;;;;;;7.77;100.00;100869.06;5029363;28;20069;-72
2024/03/02 06:59:07;;;;;;;43.30;40.15;;;;;;;7.76;100.00;100867.44;5025582;28;20056;-72
2024/03/02 07:01:34;;;;;;;43.00;39.80;;;;;;;7.83;100.00;100858.78;5029519;28;20456;-72
2024/03/02 07:04:01;;;;;;;42.50;39.45;;;;;;;7.89;100.00;100858.03;5027329;28;20054;-72
2024/03/02 07:06:28;;;;;;;44.15;40.95;;;;;;;7.91;100.00;100853.41;5029179;28;20053;-72
2024/03/02 07:08:55;;;;;;;45.63;42.50;;;;;;;7.95;100.00;100852.00;5029854;28;20053;-73
2024/03/02 07:11:21;;;;;;;43.50;40.20;;;;;;;7.95;100.00;100849.38;5025234;28;20072;-71
2024/03/02 07:13:50;;;;;;;41.78;38.78;;;;;;;7.99;100.00;100846.19;5028572;28;20049;-71
2024/03/02 07:16:27;;;;;;;43.13;39.72;;;;;;;8.09;100.00;100845.06;5029676;28;20057;-73
2024/03/02 07:18:56;;;;;;;43.40;39.90;;;;;;;8.17;100.00;100824.59;5025499;28;20061;-71
2024/03/02 07:21:23;;;;;;;41.65;38.65;;;;;;;8.14;100.00;100818.84;5028457;28;20141;-70
2024/03/02 07:23:51;;;;;;;42.50;39.38;;;;;;;8.44;100.00;100833.66;5028056;28;20049;-71
2024/03/02 07:26:19;;;;;;;40.00;37.00;;;;;;;8.27;100.00;100827.75;5028590;28;20053;-70
2024/03/02 07:28:47;;;;;;;39.42;36.53;;;;;;;8.30;100.00;100825.75;5021194;28;20136;-73
2024/03/02 07:31:18;;;;;;;42.10;39.20;;;;;;;8.23;100.00;100829.16;5029351;28;20060;-73
2024/03/02 07:33:46;;;;;;;42.05;39.05;;;;;;;8.37;100.00;100824.78;5029782;28;20049;-72
2024/03/02 07:36:14;;;;;;;42.30;39.30;;;;;;;8.45;100.00;100816.78;5029420;28;20536;-72
2024/03/02 07:38:41;;;;;;;42.55;39.35;;;;;;;8.56;100.00;100819.91;5029133;28;20567;-72
2024/03/02 07:41:08;;;;;;;37.20;34.63;;;;;;;8.49;100.00;100819.84;5025855;28;20681;-73
2024/03/02 07:43:35;;;;;;;40.33;37.53;;;;;;;8.46;100.00;100821.03;5029184;28;20041;-73
2024/03/02 07:46:03;;;;;;;40.03;37.33;;;;;;;9.30;100.00;100811.50;5028634;28;20061;-72
2024/03/02 07:48:31;;;;;;;36.33;33.72;;;;;;;9.22;100.00;100816.94;5029021;28;20111;-71
2024/03/02 07:50:58;;;;;;;35.60;33.03;;;;;;;8.75;100.00;100813.97;5028714;28;20045;-72
2024/03/02 07:53:26;;;;;;;35.30;32.70;;;;;;;8.76;100.00;100812.97;5027948;28;20049;-70
2024/03/02 07:56:02;;;;;;;37.80;35.00;;;;;;;8.79;100.00;100822.34;5024531;28;20050;-73
2024/03/02 07:58:30;;;;;;;36.53;33.92;;;;;;;8.79;100.00;100814.41;5024919;28;20944;-73
2024/03/02 08:00:56;;;;;;;35.80;33.20;;;;;;;8.88;100.00;100813.25;5028989;28;20053;-73
2024/03/02 08:03:23;;;;;;;38.00;34.42;;;;;;;8.96;100.00;100805.19;5029373;28;20068;-73
2024/03/02 08:05:52;;;;;;;34.55;32.05;;;;;;;8.89;100.00;100815.69;5023688;28;20041;-73
2024/03/02 08:08:20;;;;;;;36.88;34.17;;;;;;;8.92;100.00;100817.16;5029723;28;20081;-72
2024/03/02 08:10:48;;;;;;;38.17;35.47;;;;;;;9.03;100.00;100823.75;5021107;28;20059;-73
2024/03/02 08:13:18;;;;;;;39.28;36.47;;;;;;;9.21;100.00;100820.63;5028607;28;20049;-73
2024/03/02 08:15:45;;;;;;;38.67;35.92;;;;;;;9.17;100.00;100820.19;5028756;28;20053;-73
2024/03/02 08:18:13;;;;;;;36.72;34.13;;;;;;;9.32;100.00;100823.56;5028301;28;20042;-73
2024/03/02 08:20:47;;;;;;;36.90;34.25;;;;;;;9.52;100.00;100820.19;5033239;28;20046;-73
2024/03/02 08:23:16;;;;;;;35.47;32.78;;;;;;;9.76;100.00;100819.69;5032262;28;20045;-73
2024/03/02 08:25:43;;;;;;;32.28;29.88;;;;;;;9.47;100.00;100817.28;5043718;28;20517;-73
2024/03/02 08:28:10;;;;;;;33.20;30.80;;;;;;;9.57;100.00;100817.78;5028662;28;20061;-73
2024/03/02 08:30:37;;;;;;;33.55;31.15;;;;;;;9.58;100.00;100804.31;5032670;28;20049;-73
2024/03/02 08:33:05;;;;;;;33.83;31.42;;;;;;;9.76;100.00;100806.41;5022051;28;20148;-73
2024/03/02 08:35:35;;;;;;;35.25;32.75;;;;;;;9.81;100.00;100806.66;5028386;28;20050;-72
2024/03/02 08:38:02;;;;;;;35.40;32.90;;;;;;;9.93;100.00;100801.59;5027599;28;20111;-72
2024/03/02 08:40:31;;;;;;;35.90;33.50;;;;;;;9.88;100.00;100800.56;5032192;28;20052;-71
2024/03/02 08:42:58;;;;;;;34.72;32.33;;;;;;;10.06;100.00;100803.47;5032113;28;20081;-72
2024/03/02 08:45:24;;;;;;;31.80;29.55;;;;;;;10.28;100.00;100806.81;5032782;28;20076;-73
2024/03/02 08:48:01;;;;;;;30.27;28.17;;;;;;;10.32;100.00;100798.25;5031405;28;20057;-72
2024/03/02 08:50:27;;;;;;;30.83;28.70;;;;;;;10.29;100.00;100801.31;5031191;28;20058;-73
2024/03/02 08:52:54;;;;;;;34.08;31.88;;;;;;;10.43;100.00;100788.84;5018261;28;20050;-72
2024/03/02 08:55:21;;;;;;;34.78;32.47;;;;;;;10.62;100.00;100789.06;5032787;28;20052;-73
2024/03/02 08:57:50;;;;;;;34.58;32.20;;;;;;;10.73;100.00;100788.44;5032398;28;20049;-73
2024/03/02 09:00:18;;;;;;;34.10;31.80;;;;;;;10.71;100.00;100780.69;5028130;28;20054;-72
2024/03/02 09:02:46;;;;;;;33.38;31.17;;;;;;;10.92;100.00;100779.66;5022735;28;20081;-71
2024/03/02 09:05:13;;;;;;;30.17;28.17;;;;;;;11.27;100.00;100787.34;5031640;28;20045;-73
2024/03/02 09:07:40;;;;;;;32.83;30.67;;;;;;;11.35;100.00;100784.47;5028728;28;20053;-71
2024/03/02 09:10:10;;;;;;;33.97;31.88;;;;;;;11.45;100.00;100781.38;5030933;28;20057;-70
2024/03/02 09:12:38;;;;;;;32.60;30.50;;;;;;;11.32;100.00;100781.44;5031418;28;20049;-72
2024/03/02 09:15:09;;;;;;;35.03;32.30;;;;;;;11.35;100.00;100779.16;5031631;28;20053;-73
2024/03/02 09:17:37;;;;;;;37.40;35.00;;;;;;;11.54;100.00;100787.28;5026965;28;20072;-70
2024/03/02 09:20:05;;;;;;;31.90;29.70;;;;;;;11.52;100.00;100784.00;5029627;28;20431;-71
2024/03/02 09:22:32;;;;;;;30.15;28.05;;;;;;;11.58;100.00;100788.47;5031947;28;20053;-71
2024/03/02 09:24:59;;;;;;;33.72;31.52;;;;;;;11.48;100.00;100785.47;5029388;28;20050;-73
2024/03/02 09:27:26;;;;;;;30.83;28.83;;;;;;;11.39;100.00;100798.16;5030003;28;20057;-72
2024/03/02 09:29:53;;;;;;;33.85;31.65;;;;;;;11.75;100.00;100791.50;5026784;28;20057;-72
2024/03/02 09:32:22;;;;;;;34.40;32.10;;;;;;;11.77;100.00;100794.75;5031390;28;20756;-72
2024/03/02 09:34:58;;;;;;;34.78;32.20;;;;;;;12.19;100.00;100795.97;5027272;28;20539;-72
2024/03/02 09:37:25;;;;;;;32.63;30.52;;;;;;;12.15;100.00;100798.25;5029609;28;20049;-73
2024/03/02 09:39:53;;;;;;;40.78;38.05;;;;;;;12.67;100.00;100791.97;5030355;28;20057;-72
2024/03/02 09:42:20;;;;;;;40.58;38.17;;;;;;;12.13;100.00;100783.53;5029587;28;20051;-73
2024/03/02 09:44:49;;;;;;;33.80;31.67;;;;;;;12.49;100.00;100790.03;5025173;28;20275;-72
2024/03/02 09:47:15;;;;;;;35.17;32.97;;;;;;;12.35;100.00;100794.66;5030108;28;20456;-72
2024/03/02 09:49:44;;;;;;;32.55;30.45;;;;;;;12.33;100.00;100792.22;5030603;28;20051;-72
2024/03/02 09:52:11;;;;;;;34.67;32.53;;;;;;;12.64;100.00;100779.88;5025059;28;20053;-70
2024/03/02 09:54:40;;;;;;;35.47;33.17;;;;;;;12.61;100.00;100786.44;5034571;28;20038;-72
2024/03/02 09:57:13;;;;;;;42.22;39.63;;;;;;;12.47;100.00;100786.81;5030730;28;20049;-72
2024/03/02 09:59:40;;;;;;;38.97;36.58;;;;;;;12.56;100.00;100782.84;5022798;28;20053;-72
2024/03/02 10:02:07;;;;;;;42.92;40.22;;;;;;;13.08;100.00;100796.72;5028148;28;20056;-73
2024/03/02 10:04:35;;;;;;;34.20;31.90;;;;;;;12.79;100.00;100790.22;5032018;28;20048;-72
2024/03/02 10:07:14;;;;;;;33.28;30.88;;;;;;;12.98;100.00;100789.22;5024558;28;20063;-72
2024/03/02 10:09:42;;;;;;;33.58;30.80;;;;;;;13.11;100.00;100803.47;5021985;28;20069;-70
2024/03/02 10:12:12;;;;;;;35.30;32.47;;;;;;;12.83;100.00;100796.75;5026219;28;20052;-72
2024/03/02 10:14:39;;;;;;;41.28;38.05;;;;;;;12.88;100.00;100790.75;5028079;28;20054;-72
2024/03/02 10:17:07;;;;;;;44.10;41.20;;;;;;;13.54;100.00;100794.63;5030289;28;20053;-71
2024/03/02 10:19:35;;;;;;;34.75;32.38;;;;;;;13.29;100.00;100782.97;5030920;28;20068;-72
2024/03/02 10:22:03;;;;;;;40.00;37.40;;;;;;;13.77;100.00;100788.56;5030602;28;20115;-72
2024/03/02 10:24:40;;;;;;;34.75;32.35;;;;;;;13.96;100.00;100782.16;5029786;28;20053;-72
2024/03/02 10:27:09;;;;;;;36.85;34.35;;;;;;;13.59;100.00;100781.44;5029662;28;20050;-72
2024/03/02 10:29:40;;;;;;;33.70;31.50;;;;;;;13.45;100.00;100778.91;5026619;28;20049;-71
2024/03/02 10:32:10;;;;;;;41.78;39.17;;;;;;;13.23;100.00;100777.69;5029750;28;20056;-72
2024/03/02 10:34:51;;;;;;;40.83;38.22;;;;;;;13.10;100.00;100775.16;5026505;28;20495;-72
2024/03/02 10:37:18;;;;;;;32.05;29.85;;;;;;;13.05;100.00;100773.97;5028758;28;20045;-72
2024/03/02 10:39:47;;;;;;;33.50;31.20;;;;;;;13.10;100.00;100767.16;5028384;28;20057;-73
2024/03/02 10:42:15;;;;;;;35.25;32.92;;;;;;;12.81;100.00;100777.50;5028589;28;20061;-73
2024/03/02 10:44:44;;;;;;;36.83;34.38;;;;;;;12.79;100.00;100769.69;5027255;28;20516;-73
2024/03/02 10:47:15;;;;;;;33.70;31.40;;;;;;;12.77;100.00;100769.13;5017468;28;20045;-72
2024/03/02 10:49:43;;;;;;;35.03;32.28;;;;;;;13.25;100.00;100762.31;5029451;28;20057;-70
2024/03/02 10:52:10;;;;;;;43.88;41.00;;;;;;;13.69;100.00;100768.34;5025079;28;20398;-71
2024/03/02 10:54:39;;;;;;;43.80;41.10;;;;;;;13.73;100.00;100770.34;5028671;28;20060;-71
2024/03/02 10:57:10;;;;;;;41.72;39.22;;;;;;;13.38;100.00;100758.69;5026930;28;20657;-71
2024/03/02 10:59:51;;;;;;;35.55;33.15;;;;;;;13.31;100.00;100760.59;5028613;28;20053;-71
2024/03/02 11:02:20;;;;;;;37.92;35.50;;;;;;;13.44;100.00;100757.78;5020615;28;20501;-70
2024/03/02 11:04:50;;;;;;;32.15;30.05;;;;;;;13.68;100.00;100753.41;5027002;28;20061;-71
2024/03/02 11:07:21;;;;;;;35.63;32.78;;;;;;;13.97;100.00;100749.06;5026869;28;20051;-71
2024/03/02 11:09:56;;;;;;;35.33;33.00;;;;;;;13.67;100.00;100752.56;5025956;28;20045;-71
2024/03/02 11:12:30;;;;;;;37.22;34.65;;;;;;;13.03;100.00;100746.72;5028080;28;20540;-70